sensor_id;sensor_type;location;lat;lon;timestamp;P1;durP1;ratioP1;P2;durP2;ratioP2
17510;SDS011;8873;48.818;9.422;2023-04-25T00:01:08;3.05;;;2.75;;
17510;SDS011;8873;48.818;9.422;2023-04-25T00:03:39;4.30;;;2.65;;
17510;SDS011;8873;48.818;9.422;2023-04-25T00:06:07;4.68;;;2.70;;
17510;SDS011;8873;48.818;9.422;2023-04-25T00:08:34;3.00;;;2.42;;
17510;SDS011;8873;48.818;9.422;2023-04-25T00:11:02;3.30;;;2.63;;
17510;SDS011;8873;48.818;9.422;2023-04-25T00:13:29;2.83;;;2.63;;
17510;SDS011;8873;48.818;9.422;2023-04-25T00:15:57;2.50;;;2.30;;
17510;SDS011;8873;48.818;9.422;2023-04-25T00:18:27;3.45;;;2.40;;
17510;SDS011;8873;48.818;9.422;2023-04-25T00:20:55;2.90;;;2.42;;
17510;SDS011;8873;48.818;9.422;2023-04-25T00:23:23;3.42;;;2.40;;
17510;SDS011;8873;48.818;9.422;2023-04-25T00:25:51;2.92;;;2.38;;
17510;SDS011;8873;48.818;9.422;2023-04-25T00:28:18;2.45;;;2.25;;
17510;SDS011;8873;48.818;9.422;2023-04-25T00:30:46;2.40;;;2.20;;
17510;SDS011;8873;48.818;9.422;2023-04-25T00:33:13;3.13;;;2.25;;
17510;SDS011;8873;48.818;9.422;2023-04-25T00:35:42;4.32;;;3.08;;
17510;SDS011;8873;48.818;9.422;2023-04-25T00:38:09;4.57;;;2.15;;
17510;SDS011;8873;48.818;9.422;2023-04-25T00:40:37;2.40;;;2.22;;
17510;SDS011;8873;48.818;9.422;2023-04-25T00:43:05;5.93;;;2.30;;
17510;SDS011;8873;48.818;9.422;2023-04-25T00:45:32;2.92;;;2.60;;
17510;SDS011;8873;48.818;9.422;2023-04-25T00:48:03;6.55;;;2.28;;
17510;SDS011;8873;48.818;9.422;2023-04-25T00:50:32;4.57;;;2.40;;
17510;SDS011;8873;48.818;9.422;2023-04-25T00:53:01;2.78;;;2.55;;
17510;SDS011;8873;48.818;9.422;2023-04-25T00:55:29;2.50;;;2.30;;
17510;SDS011;8873;48.818;9.422;2023-04-25T00:57:58;2.60;;;2.40;;
17510;SDS011;8873;48.818;9.422;2023-04-25T01:00:26;2.63;;;2.38;;
17510;SDS011;8873;48.818;9.422;2023-04-25T01:02:54;2.60;;;2.30;;
17510;SDS011;8873;48.818;9.422;2023-04-25T01:05:23;2.35;;;2.15;;
17510;SDS011;8873;48.818;9.422;2023-04-25T01:07:51;2.80;;;2.17;;
17510;SDS011;8873;48.818;9.422;2023-04-25T01:10:20;3.53;;;2.50;;
17510;SDS011;8873;48.818;9.422;2023-04-25T01:12:47;3.78;;;2.58;;
17510;SDS011;8873;48.818;9.422;2023-04-25T01:15:15;3.30;;;2.15;;
17510;SDS011;8873;48.818;9.422;2023-04-25T01:17:43;2.55;;;2.40;;
17510;SDS011;8873;48.818;9.422;2023-04-25T01:20:11;2.42;;;2.30;;
17510;SDS011;8873;48.818;9.422;2023-04-25T01:22:40;2.38;;;2.17;;
17510;SDS011;8873;48.818;9.422;2023-04-25T01:25:08;2.95;;;2.40;;
17510;SDS011;8873;48.818;9.422;2023-04-25T01:27:36;1.92;;;1.83;;
17510;SDS011;8873;48.818;9.422;2023-04-25T01:30:04;3.08;;;2.17;;
17510;SDS011;8873;48.818;9.422;2023-04-25T01:32:32;2.03;;;1.90;;
17510;SDS011;8873;48.818;9.422;2023-04-25T01:35:05;2.50;;;2.30;;
17510;SDS011;8873;48.818;9.422;2023-04-25T01:37:35;3.00;;;2.30;;
17510;SDS011;8873;48.818;9.422;2023-04-25T01:40:05;3.53;;;2.13;;
17510;SDS011;8873;48.818;9.422;2023-04-25T01:42:33;2.42;;;2.30;;
17510;SDS011;8873;48.818;9.422;2023-04-25T01:45:01;2.70;;;2.50;;
17510;SDS011;8873;48.818;9.422;2023-04-25T01:47:29;2.47;;;2.28;;
17510;SDS011;8873;48.818;9.422;2023-04-25T01:49:58;2.45;;;2.20;;
17510;SDS011;8873;48.818;9.422;2023-04-25T01:52:26;2.75;;;2.20;;
17510;SDS011;8873;48.818;9.422;2023-04-25T01:54:53;2.60;;;2.40;;
17510;SDS011;8873;48.818;9.422;2023-04-25T01:57:22;2.35;;;2.22;;
17510;SDS011;8873;48.818;9.422;2023-04-25T01:59:50;3.45;;;2.40;;
17510;SDS011;8873;48.818;9.422;2023-04-25T02:02:18;4.22;;;2.53;;
17510;SDS011;8873;48.818;9.422;2023-04-25T02:04:46;3.70;;;2.50;;
17510;SDS011;8873;48.818;9.422;2023-04-25T02:07:13;3.28;;;2.88;;
17510;SDS011;8873;48.818;9.422;2023-04-25T02:09:42;2.67;;;2.47;;
17510;SDS011;8873;48.818;9.422;2023-04-25T02:12:09;3.30;;;2.80;;
17510;SDS011;8873;48.818;9.422;2023-04-25T02:14:38;5.35;;;2.58;;
17510;SDS011;8873;48.818;9.422;2023-04-25T02:17:06;2.97;;;2.72;;
17510;SDS011;8873;48.818;9.422;2023-04-25T02:19:34;4.03;;;3.17;;
17510;SDS011;8873;48.818;9.422;2023-04-25T02:22:01;3.33;;;3.08;;
17510;SDS011;8873;48.818;9.422;2023-04-25T02:24:29;3.15;;;2.80;;
17510;SDS011;8873;48.818;9.422;2023-04-25T02:26:57;5.20;;;3.22;;
17510;SDS011;8873;48.818;9.422;2023-04-25T02:29:25;3.53;;;3.00;;
17510;SDS011;8873;48.818;9.422;2023-04-25T02:31:54;5.72;;;3.05;;
17510;SDS011;8873;48.818;9.422;2023-04-25T02:34:22;4.25;;;3.05;;
17510;SDS011;8873;48.818;9.422;2023-04-25T02:36:50;6.53;;;3.28;;
17510;SDS011;8873;48.818;9.422;2023-04-25T02:39:17;3.42;;;3.00;;
17510;SDS011;8873;48.818;9.422;2023-04-25T02:41:45;3.03;;;2.72;;
17510;SDS011;8873;48.818;9.422;2023-04-25T02:44:12;3.53;;;2.72;;
17510;SDS011;8873;48.818;9.422;2023-04-25T02:46:40;5.70;;;3.80;;
17510;SDS011;8873;48.818;9.422;2023-04-25T02:49:09;4.30;;;3.40;;
17510;SDS011;8873;48.818;9.422;2023-04-25T02:51:37;3.78;;;3.42;;
17510;SDS011;8873;48.818;9.422;2023-04-25T02:54:04;4.07;;;3.30;;
17510;SDS011;8873;48.818;9.422;2023-04-25T02:56:32;3.72;;;3.35;;
17510;SDS011;8873;48.818;9.422;2023-04-25T02:59:00;6.38;;;3.22;;
17510;SDS011;8873;48.818;9.422;2023-04-25T03:01:27;4.97;;;3.42;;
17510;SDS011;8873;48.818;9.422;2023-04-25T03:03:55;6.47;;;3.47;;
17510;SDS011;8873;48.818;9.422;2023-04-25T03:06:24;4.15;;;3.47;;
17510;SDS011;8873;48.818;9.422;2023-04-25T03:08:51;6.07;;;4.50;;
17510;SDS011;8873;48.818;9.422;2023-04-25T03:11:19;3.75;;;3.17;;
17510;SDS011;8873;48.818;9.422;2023-04-25T03:13:47;4.28;;;3.17;;
17510;SDS011;8873;48.818;9.422;2023-04-25T03:16:15;4.90;;;3.70;;
17510;SDS011;8873;48.818;9.422;2023-04-25T03:18:43;6.90;;;4.88;;
17510;SDS011;8873;48.818;9.422;2023-04-25T03:21:10;8.45;;;4.18;;
17510;SDS011;8873;48.818;9.422;2023-04-25T03:23:39;4.60;;;3.55;;
17510;SDS011;8873;48.818;9.422;2023-04-25T03:26:07;4.78;;;3.58;;
17510;SDS011;8873;48.818;9.422;2023-04-25T03:28:34;3.92;;;3.22;;
17510;SDS011;8873;48.818;9.422;2023-04-25T03:31:02;5.10;;;3.15;;
17510;SDS011;8873;48.818;9.422;2023-04-25T03:33:29;5.88;;;3.53;;
17510;SDS011;8873;48.818;9.422;2023-04-25T03:35:57;4.30;;;3.70;;
17510;SDS011;8873;48.818;9.422;2023-04-25T03:38:25;4.07;;;3.35;;
17510;SDS011;8873;48.818;9.422;2023-04-25T03:40:54;4.32;;;3.17;;
17510;SDS011;8873;48.818;9.422;2023-04-25T03:43:22;3.60;;;3.30;;
17510;SDS011;8873;48.818;9.422;2023-04-25T03:45:50;4.57;;;3.55;;
17510;SDS011;8873;48.818;9.422;2023-04-25T03:48:17;3.75;;;3.38;;
17510;SDS011;8873;48.818;9.422;2023-04-25T03:50:47;5.85;;;3.40;;
17510;SDS011;8873;48.818;9.422;2023-04-25T03:53:15;4.88;;;3.50;;
17510;SDS011;8873;48.818;9.422;2023-04-25T03:55:42;5.93;;;3.78;;
17510;SDS011;8873;48.818;9.422;2023-04-25T03:58:11;4.25;;;3.30;;
17510;SDS011;8873;48.818;9.422;2023-04-25T04:00:39;4.65;;;3.20;;
17510;SDS011;8873;48.818;9.422;2023-04-25T04:03:07;4.20;;;3.25;;
17510;SDS011;8873;48.818;9.422;2023-04-25T04:05:35;6.28;;;3.20;;
17510;SDS011;8873;48.818;9.422;2023-04-25T04:08:03;3.97;;;3.00;;
17510;SDS011;8873;48.818;9.422;2023-04-25T04:10:31;4.65;;;3.08;;
17510;SDS011;8873;48.818;9.422;2023-04-25T04:12:59;7.45;;;3.50;;
17510;SDS011;8873;48.818;9.422;2023-04-25T04:15:28;3.58;;;3.20;;
17510;SDS011;8873;48.818;9.422;2023-04-25T04:17:55;4.35;;;3.33;;
17510;SDS011;8873;48.818;9.422;2023-04-25T04:20:23;3.92;;;2.97;;
17510;SDS011;8873;48.818;9.422;2023-04-25T04:22:50;4.47;;;2.88;;
17510;SDS011;8873;48.818;9.422;2023-04-25T04:25:18;4.68;;;3.00;;
17510;SDS011;8873;48.818;9.422;2023-04-25T04:27:46;3.45;;;3.13;;
17510;SDS011;8873;48.818;9.422;2023-04-25T04:30:13;6.28;;;3.35;;
17510;SDS011;8873;48.818;9.422;2023-04-25T04:32:43;5.47;;;3.25;;
17510;SDS011;8873;48.818;9.422;2023-04-25T04:35:11;5.25;;;3.60;;
17510;SDS011;8873;48.818;9.422;2023-04-25T04:37:38;4.63;;;3.83;;
17510;SDS011;8873;48.818;9.422;2023-04-25T04:40:06;5.93;;;3.42;;
17510;SDS011;8873;48.818;9.422;2023-04-25T04:42:34;8.52;;;3.92;;
17510;SDS011;8873;48.818;9.422;2023-04-25T04:45:02;3.80;;;3.22;;
17510;SDS011;8873;48.818;9.422;2023-04-25T04:47:30;4.88;;;3.47;;
17510;SDS011;8873;48.818;9.422;2023-04-25T04:50:00;4.80;;;3.63;;
17510;SDS011;8873;48.818;9.422;2023-04-25T04:52:27;3.63;;;3.28;;
17510;SDS011;8873;48.818;9.422;2023-04-25T04:54:55;5.03;;;3.80;;
17510;SDS011;8873;48.818;9.422;2023-04-25T04:57:23;4.80;;;3.70;;
17510;SDS011;8873;48.818;9.422;2023-04-25T04:59:51;6.07;;;4.32;;
17510;SDS011;8873;48.818;9.422;2023-04-25T05:02:19;4.63;;;3.92;;
17510;SDS011;8873;48.818;9.422;2023-04-25T05:04:48;6.15;;;4.25;;
17510;SDS011;8873;48.818;9.422;2023-04-25T05:07:18;7.47;;;4.10;;
17510;SDS011;8873;48.818;9.422;2023-04-25T05:09:46;4.15;;;3.75;;
17510;SDS011;8873;48.818;9.422;2023-04-25T05:12:13;5.03;;;3.83;;
17510;SDS011;8873;48.818;9.422;2023-04-25T05:14:41;6.53;;;3.90;;
17510;SDS011;8873;48.818;9.422;2023-04-25T05:17:09;7.88;;;4.57;;
17510;SDS011;8873;48.818;9.422;2023-04-25T05:19:37;4.65;;;3.40;;
17510;SDS011;8873;48.818;9.422;2023-04-25T05:22:06;8.25;;;3.92;;
17510;SDS011;8873;48.818;9.422;2023-04-25T05:24:35;4.00;;;3.60;;
17510;SDS011;8873;48.818;9.422;2023-04-25T05:27:03;3.70;;;3.30;;
17510;SDS011;8873;48.818;9.422;2023-04-25T05:29:34;5.72;;;3.50;;
17510;SDS011;8873;48.818;9.422;2023-04-25T05:32:02;6.50;;;3.80;;
17510;SDS011;8873;48.818;9.422;2023-04-25T05:34:30;6.00;;;3.53;;
17510;SDS011;8873;48.818;9.422;2023-04-25T05:37:01;5.63;;;2.97;;
17510;SDS011;8873;48.818;9.422;2023-04-25T05:39:30;10.15;;;3.25;;
17510;SDS011;8873;48.818;9.422;2023-04-25T05:42:01;3.03;;;2.72;;
17510;SDS011;8873;48.818;9.422;2023-04-25T05:44:30;4.35;;;3.30;;
17510;SDS011;8873;48.818;9.422;2023-04-25T05:47:00;6.78;;;3.38;;
17510;SDS011;8873;48.818;9.422;2023-04-25T05:49:30;5.85;;;3.90;;
17510;SDS011;8873;48.818;9.422;2023-04-25T05:51:58;7.78;;;3.42;;
17510;SDS011;8873;48.818;9.422;2023-04-25T05:54:26;6.05;;;3.50;;
17510;SDS011;8873;48.818;9.422;2023-04-25T05:56:56;4.57;;;3.88;;
17510;SDS011;8873;48.818;9.422;2023-04-25T05:59:26;3.88;;;3.58;;
17510;SDS011;8873;48.818;9.422;2023-04-25T06:01:53;5.03;;;3.70;;
17510;SDS011;8873;48.818;9.422;2023-04-25T06:04:25;7.75;;;3.50;;
17510;SDS011;8873;48.818;9.422;2023-04-25T06:06:55;8.15;;;4.25;;
17510;SDS011;8873;48.818;9.422;2023-04-25T06:09:22;9.00;;;3.90;;
17510;SDS011;8873;48.818;9.422;2023-04-25T06:11:53;5.00;;;3.83;;
17510;SDS011;8873;48.818;9.422;2023-04-25T06:14:22;6.72;;;4.22;;
17510;SDS011;8873;48.818;9.422;2023-04-25T06:16:56;7.65;;;4.70;;
17510;SDS011;8873;48.818;9.422;2023-04-25T06:19:23;6.85;;;4.85;;
17510;SDS011;8873;48.818;9.422;2023-04-25T06:21:51;4.25;;;3.85;;
17510;SDS011;8873;48.818;9.422;2023-04-25T06:24:19;5.95;;;4.20;;
17510;SDS011;8873;48.818;9.422;2023-04-25T06:26:47;8.38;;;4.55;;
17510;SDS011;8873;48.818;9.422;2023-04-25T06:29:14;10.07;;;5.00;;
17510;SDS011;8873;48.818;9.422;2023-04-25T06:31:42;7.40;;;5.07;;
17510;SDS011;8873;48.818;9.422;2023-04-25T06:34:11;7.45;;;4.95;;
17510;SDS011;8873;48.818;9.422;2023-04-25T06:36:39;6.90;;;5.28;;
17510;SDS011;8873;48.818;9.422;2023-04-25T06:39:10;8.20;;;5.22;;
17510;SDS011;8873;48.818;9.422;2023-04-25T06:41:38;7.07;;;5.10;;
17510;SDS011;8873;48.818;9.422;2023-04-25T06:44:05;11.07;;;6.60;;
17510;SDS011;8873;48.818;9.422;2023-04-25T06:46:33;6.13;;;4.63;;
17510;SDS011;8873;48.818;9.422;2023-04-25T06:49:05;9.90;;;4.82;;
17510;SDS011;8873;48.818;9.422;2023-04-25T06:51:34;6.55;;;4.35;;
17510;SDS011;8873;48.818;9.422;2023-04-25T06:54:01;7.93;;;5.00;;
17510;SDS011;8873;48.818;9.422;2023-04-25T06:56:30;6.57;;;4.57;;
17510;SDS011;8873;48.818;9.422;2023-04-25T06:58:58;6.90;;;4.70;;
17510;SDS011;8873;48.818;9.422;2023-04-25T07:01:27;5.22;;;4.22;;
17510;SDS011;8873;48.818;9.422;2023-04-25T07:03:55;6.78;;;4.20;;
17510;SDS011;8873;48.818;9.422;2023-04-25T07:06:23;5.28;;;4.20;;
17510;SDS011;8873;48.818;9.422;2023-04-25T07:08:53;5.80;;;4.38;;
17510;SDS011;8873;48.818;9.422;2023-04-25T07:11:21;6.80;;;4.60;;
17510;SDS011;8873;48.818;9.422;2023-04-25T07:13:49;8.18;;;3.85;;
17510;SDS011;8873;48.818;9.422;2023-04-25T07:16:17;4.05;;;3.65;;
17510;SDS011;8873;48.818;9.422;2023-04-25T07:18:45;4.03;;;3.65;;
17510;SDS011;8873;48.818;9.422;2023-04-25T07:21:12;4.28;;;3.63;;
17510;SDS011;8873;48.818;9.422;2023-04-25T07:23:40;4.80;;;3.90;;
17510;SDS011;8873;48.818;9.422;2023-04-25T07:26:09;7.18;;;5.10;;
17510;SDS011;8873;48.818;9.422;2023-04-25T07:28:37;7.57;;;5.05;;
17510;SDS011;8873;48.818;9.422;2023-04-25T07:31:04;4.93;;;4.40;;
17510;SDS011;8873;48.818;9.422;2023-04-25T07:33:32;4.85;;;4.20;;
17510;SDS011;8873;48.818;9.422;2023-04-25T07:36:00;4.57;;;3.88;;
17510;SDS011;8873;48.818;9.422;2023-04-25T07:38:28;3.97;;;3.58;;
17510;SDS011;8873;48.818;9.422;2023-04-25T07:40:56;7.70;;;4.05;;
17510;SDS011;8873;48.818;9.422;2023-04-25T07:43:25;5.28;;;4.30;;
17510;SDS011;8873;48.818;9.422;2023-04-25T07:45:53;7.10;;;4.85;;
17510;SDS011;8873;48.818;9.422;2023-04-25T07:48:20;5.70;;;4.57;;
17510;SDS011;8873;48.818;9.422;2023-04-25T07:50:48;7.82;;;4.75;;
17510;SDS011;8873;48.818;9.422;2023-04-25T07:53:16;6.82;;;4.70;;
17510;SDS011;8873;48.818;9.422;2023-04-25T07:55:43;6.20;;;4.60;;
17510;SDS011;8873;48.818;9.422;2023-04-25T07:58:11;6.18;;;5.13;;
17510;SDS011;8873;48.818;9.422;2023-04-25T08:00:40;11.20;;;6.15;;
17510;SDS011;8873;48.818;9.422;2023-04-25T08:03:09;16.38;;;8.00;;
17510;SDS011;8873;48.818;9.422;2023-04-25T08:05:36;12.30;;;6.50;;
17510;SDS011;8873;48.818;9.422;2023-04-25T08:08:04;8.05;;;5.32;;
17510;SDS011;8873;48.818;9.422;2023-04-25T08:10:33;10.48;;;5.72;;
17510;SDS011;8873;48.818;9.422;2023-04-25T08:13:00;10.93;;;6.35;;
17510;SDS011;8873;48.818;9.422;2023-04-25T08:15:28;9.73;;;6.00;;
17510;SDS011;8873;48.818;9.422;2023-04-25T08:17:57;9.57;;;6.00;;
17510;SDS011;8873;48.818;9.422;2023-04-25T08:20:25;10.65;;;6.38;;
17510;SDS011;8873;48.818;9.422;2023-04-25T08:22:53;12.77;;;6.20;;
17510;SDS011;8873;48.818;9.422;2023-04-25T08:25:21;10.75;;;6.22;;
17510;SDS011;8873;48.818;9.422;2023-04-25T08:27:48;12.38;;;6.35;;
17510;SDS011;8873;48.818;9.422;2023-04-25T08:30:16;12.43;;;6.60;;
17510;SDS011;8873;48.818;9.422;2023-04-25T08:32:44;8.15;;;6.18;;
17510;SDS011;8873;48.818;9.422;2023-04-25T08:35:13;14.18;;;6.50;;
17510;SDS011;8873;48.818;9.422;2023-04-25T08:37:40;17.95;;;6.70;;
17510;SDS011;8873;48.818;9.422;2023-04-25T08:40:08;10.57;;;6.80;;
17510;SDS011;8873;48.818;9.422;2023-04-25T08:42:38;10.75;;;6.63;;
17510;SDS011;8873;48.818;9.422;2023-04-25T08:45:09;14.38;;;8.18;;
17510;SDS011;8873;48.818;9.422;2023-04-25T08:47:38;15.68;;;8.30;;
17510;SDS011;8873;48.818;9.422;2023-04-25T08:50:06;14.07;;;7.88;;
17510;SDS011;8873;48.818;9.422;2023-04-25T08:52:37;13.25;;;7.53;;
17510;SDS011;8873;48.818;9.422;2023-04-25T08:55:07;10.50;;;6.90;;
17510;SDS011;8873;48.818;9.422;2023-04-25T08:57:37;10.23;;;6.68;;
17510;SDS011;8873;48.818;9.422;2023-04-25T09:00:05;12.45;;;7.68;;
17510;SDS011;8873;48.818;9.422;2023-04-25T09:02:34;10.70;;;6.63;;
17510;SDS011;8873;48.818;9.422;2023-04-25T09:05:02;12.07;;;7.20;;
17510;SDS011;8873;48.818;9.422;2023-04-25T09:07:30;11.52;;;6.53;;
17510;SDS011;8873;48.818;9.422;2023-04-25T09:09:59;11.07;;;6.60;;
17510;SDS011;8873;48.818;9.422;2023-04-25T09:12:29;10.38;;;6.50;;
17510;SDS011;8873;48.818;9.422;2023-04-25T09:15:04;11.70;;;6.53;;
17510;SDS011;8873;48.818;9.422;2023-04-25T09:17:33;10.25;;;7.55;;
17510;SDS011;8873;48.818;9.422;2023-04-25T09:20:05;12.55;;;7.90;;
17510;SDS011;8873;48.818;9.422;2023-04-25T09:22:35;9.57;;;6.28;;
17510;SDS011;8873;48.818;9.422;2023-04-25T09:25:07;10.20;;;6.85;;
17510;SDS011;8873;48.818;9.422;2023-04-25T09:27:35;11.05;;;7.38;;
17510;SDS011;8873;48.818;9.422;2023-04-25T09:30:03;11.70;;;7.20;;
17510;SDS011;8873;48.818;9.422;2023-04-25T09:32:31;15.63;;;8.45;;
17510;SDS011;8873;48.818;9.422;2023-04-25T09:34:59;10.25;;;6.20;;
17510;SDS011;8873;48.818;9.422;2023-04-25T09:37:27;8.93;;;6.05;;
17510;SDS011;8873;48.818;9.422;2023-04-25T09:39:55;9.82;;;6.45;;
17510;SDS011;8873;48.818;9.422;2023-04-25T09:42:25;11.35;;;7.47;;
17510;SDS011;8873;48.818;9.422;2023-04-25T09:44:54;11.00;;;6.95;;
17510;SDS011;8873;48.818;9.422;2023-04-25T09:47:22;8.73;;;5.68;;
17510;SDS011;8873;48.818;9.422;2023-04-25T09:49:50;7.93;;;5.78;;
17510;SDS011;8873;48.818;9.422;2023-04-25T09:52:19;8.45;;;6.10;;
17510;SDS011;8873;48.818;9.422;2023-04-25T09:54:50;10.85;;;5.78;;
17510;SDS011;8873;48.818;9.422;2023-04-25T09:57:18;7.55;;;4.35;;
17510;SDS011;8873;48.818;9.422;2023-04-25T09:59:48;6.63;;;4.88;;
17510;SDS011;8873;48.818;9.422;2023-04-25T10:02:16;7.72;;;5.03;;
17510;SDS011;8873;48.818;9.422;2023-04-25T10:04:47;8.85;;;5.85;;
17510;SDS011;8873;48.818;9.422;2023-04-25T10:07:15;9.15;;;5.75;;
17510;SDS011;8873;48.818;9.422;2023-04-25T10:09:44;10.57;;;5.75;;
17510;SDS011;8873;48.818;9.422;2023-04-25T10:12:13;8.88;;;6.03;;
17510;SDS011;8873;48.818;9.422;2023-04-25T10:14:41;23.85;;;14.80;;
17510;SDS011;8873;48.818;9.422;2023-04-25T10:17:11;25.40;;;13.93;;
17510;SDS011;8873;48.818;9.422;2023-04-25T10:19:44;14.18;;;8.00;;
17510;SDS011;8873;48.818;9.422;2023-04-25T10:22:13;12.77;;;7.45;;
17510;SDS011;8873;48.818;9.422;2023-04-25T10:24:42;12.18;;;7.38;;
17510;SDS011;8873;48.818;9.422;2023-04-25T10:27:12;14.15;;;8.68;;
17510;SDS011;8873;48.818;9.422;2023-04-25T10:29:41;12.25;;;7.50;;
17510;SDS011;8873;48.818;9.422;2023-04-25T10:32:10;9.40;;;6.60;;
17510;SDS011;8873;48.818;9.422;2023-04-25T10:34:39;8.95;;;6.18;;
17510;SDS011;8873;48.818;9.422;2023-04-25T10:37:10;8.18;;;6.35;;
17510;SDS011;8873;48.818;9.422;2023-04-25T10:39:38;11.98;;;6.07;;
17510;SDS011;8873;48.818;9.422;2023-04-25T10:42:06;13.05;;;6.03;;
17510;SDS011;8873;48.818;9.422;2023-04-25T10:44:36;8.93;;;5.78;;
17510;SDS011;8873;48.818;9.422;2023-04-25T10:47:06;8.20;;;5.13;;
17510;SDS011;8873;48.818;9.422;2023-04-25T10:49:36;8.55;;;4.43;;
17510;SDS011;8873;48.818;9.422;2023-04-25T10:52:13;10.52;;;4.60;;
17510;SDS011;8873;48.818;9.422;2023-04-25T10:54:42;7.72;;;5.30;;
17510;SDS011;8873;48.818;9.422;2023-04-25T10:57:29;8.43;;;4.65;;
17510;SDS011;8873;48.818;9.422;2023-04-25T11:00:00;6.95;;;4.40;;
17510;SDS011;8873;48.818;9.422;2023-04-25T11:02:36;7.15;;;4.95;;
17510;SDS011;8873;48.818;9.422;2023-04-25T11:05:06;8.65;;;5.55;;
17510;SDS011;8873;48.818;9.422;2023-04-25T11:07:34;8.35;;;5.68;;
17510;SDS011;8873;48.818;9.422;2023-04-25T11:10:05;8.90;;;5.45;;
17510;SDS011;8873;48.818;9.422;2023-04-25T11:12:33;10.35;;;6.50;;
17510;SDS011;8873;48.818;9.422;2023-04-25T11:15:01;14.57;;;6.22;;
17510;SDS011;8873;48.818;9.422;2023-04-25T11:17:29;10.05;;;6.05;;
17510;SDS011;8873;48.818;9.422;2023-04-25T11:19:57;8.65;;;5.93;;
17510;SDS011;8873;48.818;9.422;2023-04-25T11:22:26;9.48;;;5.85;;
17510;SDS011;8873;48.818;9.422;2023-04-25T11:24:54;11.43;;;6.03;;
17510;SDS011;8873;48.818;9.422;2023-04-25T11:27:22;13.82;;;7.40;;
17510;SDS011;8873;48.818;9.422;2023-04-25T11:29:51;11.05;;;6.40;;
17510;SDS011;8873;48.818;9.422;2023-04-25T11:32:18;10.00;;;6.90;;
17510;SDS011;8873;48.818;9.422;2023-04-25T11:34:46;9.05;;;5.80;;
17510;SDS011;8873;48.818;9.422;2023-04-25T11:37:14;10.15;;;5.20;;
17510;SDS011;8873;48.818;9.422;2023-04-25T11:39:46;9.32;;;4.82;;
17510;SDS011;8873;48.818;9.422;2023-04-25T11:42:14;8.38;;;5.40;;
17510;SDS011;8873;48.818;9.422;2023-04-25T11:44:42;8.15;;;4.90;;
17510;SDS011;8873;48.818;9.422;2023-04-25T11:47:10;7.38;;;5.05;;
17510;SDS011;8873;48.818;9.422;2023-04-25T11:49:37;8.18;;;5.70;;
17510;SDS011;8873;48.818;9.422;2023-04-25T11:52:06;10.23;;;6.13;;
17510;SDS011;8873;48.818;9.422;2023-04-25T11:54:35;11.30;;;6.28;;
17510;SDS011;8873;48.818;9.422;2023-04-25T11:57:04;9.23;;;5.90;;
17510;SDS011;8873;48.818;9.422;2023-04-25T11:59:32;13.40;;;6.47;;
17510;SDS011;8873;48.818;9.422;2023-04-25T12:02:00;8.60;;;5.47;;
17510;SDS011;8873;48.818;9.422;2023-04-25T12:04:29;8.57;;;5.18;;
17510;SDS011;8873;48.818;9.422;2023-04-25T12:06:58;8.40;;;5.82;;
17510;SDS011;8873;48.818;9.422;2023-04-25T12:09:31;8.40;;;5.25;;
17510;SDS011;8873;48.818;9.422;2023-04-25T12:12:01;6.47;;;4.90;;
17510;SDS011;8873;48.818;9.422;2023-04-25T12:14:32;9.10;;;5.53;;
17510;SDS011;8873;48.818;9.422;2023-04-25T12:17:00;6.95;;;5.20;;
17510;SDS011;8873;48.818;9.422;2023-04-25T12:19:31;8.05;;;4.72;;
17510;SDS011;8873;48.818;9.422;2023-04-25T12:22:00;5.90;;;4.25;;
17510;SDS011;8873;48.818;9.422;2023-04-25T12:24:27;4.05;;;3.55;;
17510;SDS011;8873;48.818;9.422;2023-04-25T12:26:58;4.97;;;3.80;;
17510;SDS011;8873;48.818;9.422;2023-04-25T12:29:27;4.57;;;3.38;;
17510;SDS011;8873;48.818;9.422;2023-04-25T12:32:09;3.50;;;3.20;;
17510;SDS011;8873;48.818;9.422;2023-04-25T12:34:36;4.13;;;3.42;;
17510;SDS011;8873;48.818;9.422;2023-04-25T12:37:04;7.55;;;4.63;;
17510;SDS011;8873;48.818;9.422;2023-04-25T12:39:31;5.63;;;3.63;;
17510;SDS011;8873;48.818;9.422;2023-04-25T12:41:59;6.47;;;4.85;;
17510;SDS011;8873;48.818;9.422;2023-04-25T12:44:27;4.88;;;4.18;;
17510;SDS011;8873;48.818;9.422;2023-04-25T12:46:54;5.53;;;4.38;;
17510;SDS011;8873;48.818;9.422;2023-04-25T12:49:23;6.13;;;4.80;;
17510;SDS011;8873;48.818;9.422;2023-04-25T12:51:51;5.72;;;4.07;;
17510;SDS011;8873;48.818;9.422;2023-04-25T12:54:19;4.78;;;3.85;;
17510;SDS011;8873;48.818;9.422;2023-04-25T12:56:46;5.60;;;4.82;;
17510;SDS011;8873;48.818;9.422;2023-04-25T12:59:14;8.02;;;5.30;;
17510;SDS011;8873;48.818;9.422;2023-04-25T13:01:42;6.55;;;4.28;;
17510;SDS011;8873;48.818;9.422;2023-04-25T13:04:10;6.82;;;5.10;;
17510;SDS011;8873;48.818;9.422;2023-04-25T13:06:40;7.30;;;5.07;;
17510;SDS011;8873;48.818;9.422;2023-04-25T13:09:07;6.45;;;5.35;;
17510;SDS011;8873;48.818;9.422;2023-04-25T13:11:35;5.47;;;4.32;;
17510;SDS011;8873;48.818;9.422;2023-04-25T13:14:03;5.70;;;4.10;;
17510;SDS011;8873;48.818;9.422;2023-04-25T13:16:31;6.70;;;4.72;;
17510;SDS011;8873;48.818;9.422;2023-04-25T13:18:59;4.55;;;3.55;;
17510;SDS011;8873;48.818;9.422;2023-04-25T13:21:29;4.05;;;3.65;;
17510;SDS011;8873;48.818;9.422;2023-04-25T13:23:59;5.50;;;4.75;;
17510;SDS011;8873;48.818;9.422;2023-04-25T13:26:27;5.20;;;4.30;;
17510;SDS011;8873;48.818;9.422;2023-04-25T13:28:55;6.20;;;4.10;;
17510;SDS011;8873;48.818;9.422;2023-04-25T13:31:23;8.82;;;5.45;;
17510;SDS011;8873;48.818;9.422;2023-04-25T13:33:51;4.97;;;4.13;;
17510;SDS011;8873;48.818;9.422;2023-04-25T13:36:19;5.47;;;4.38;;
17510;SDS011;8873;48.818;9.422;2023-04-25T13:38:47;6.93;;;4.75;;
17510;SDS011;8873;48.818;9.422;2023-04-25T13:41:17;6.07;;;4.82;;
17510;SDS011;8873;48.818;9.422;2023-04-25T13:43:45;7.72;;;4.95;;
17510;SDS011;8873;48.818;9.422;2023-04-25T13:46:15;7.70;;;5.40;;
17510;SDS011;8873;48.818;9.422;2023-04-25T13:48:46;7.40;;;5.20;;
17510;SDS011;8873;48.818;9.422;2023-04-25T13:51:15;9.50;;;5.57;;
17510;SDS011;8873;48.818;9.422;2023-04-25T13:53:43;8.90;;;4.97;;
17510;SDS011;8873;48.818;9.422;2023-04-25T13:56:11;6.05;;;5.22;;
17510;SDS011;8873;48.818;9.422;2023-04-25T13:58:40;9.18;;;4.88;;
17510;SDS011;8873;48.818;9.422;2023-04-25T14:01:08;10.38;;;6.55;;
17510;SDS011;8873;48.818;9.422;2023-04-25T14:03:36;13.38;;;8.35;;
17510;SDS011;8873;48.818;9.422;2023-04-25T14:06:04;15.13;;;10.80;;
17510;SDS011;8873;48.818;9.422;2023-04-25T14:08:32;13.98;;;6.88;;
17510;SDS011;8873;48.818;9.422;2023-04-25T14:10:59;11.75;;;6.40;;
17510;SDS011;8873;48.818;9.422;2023-04-25T14:13:29;10.38;;;6.10;;
17510;SDS011;8873;48.818;9.422;2023-04-25T14:15:58;11.70;;;7.85;;
17510;SDS011;8873;48.818;9.422;2023-04-25T14:18:26;15.93;;;8.00;;
17510;SDS011;8873;48.818;9.422;2023-04-25T14:20:53;10.10;;;6.30;;
17510;SDS011;8873;48.818;9.422;2023-04-25T14:23:21;12.23;;;6.90;;
17510;SDS011;8873;48.818;9.422;2023-04-25T14:25:48;13.45;;;8.07;;
17510;SDS011;8873;48.818;9.422;2023-04-25T14:28:16;10.15;;;7.55;;
17510;SDS011;8873;48.818;9.422;2023-04-25T14:30:44;14.80;;;8.18;;
17510;SDS011;8873;48.818;9.422;2023-04-25T14:33:13;11.88;;;7.53;;
17510;SDS011;8873;48.818;9.422;2023-04-25T14:35:41;12.02;;;6.93;;
17510;SDS011;8873;48.818;9.422;2023-04-25T14:38:09;10.15;;;7.60;;
17510;SDS011;8873;48.818;9.422;2023-04-25T14:40:36;14.95;;;8.02;;
17510;SDS011;8873;48.818;9.422;2023-04-25T14:43:04;13.90;;;6.85;;
17510;SDS011;8873;48.818;9.422;2023-04-25T14:45:33;14.40;;;7.45;;
17510;SDS011;8873;48.818;9.422;2023-04-25T14:48:00;13.00;;;7.57;;
17510;SDS011;8873;48.818;9.422;2023-04-25T14:50:30;10.95;;;6.95;;
17510;SDS011;8873;48.818;9.422;2023-04-25T14:52:58;9.60;;;7.07;;
17510;SDS011;8873;48.818;9.422;2023-04-25T14:55:26;11.70;;;7.30;;
17510;SDS011;8873;48.818;9.422;2023-04-25T14:57:54;16.05;;;6.95;;
17510;SDS011;8873;48.818;9.422;2023-04-25T15:00:23;13.68;;;7.15;;
17510;SDS011;8873;48.818;9.422;2023-04-25T15:02:51;15.65;;;9.27;;
17510;SDS011;8873;48.818;9.422;2023-04-25T15:05:19;12.95;;;7.38;;